sensor_id;sensor_type;location;lat;lon;timestamp;P1;durP1;ratioP1;P2;durP2;ratioP2
73172;SDS011;61388;54.962;73.394;2022-10-15T00:00:46;15.32;;;9.60;;
73172;SDS011;61388;54.962;73.394;2022-10-15T00:03:12;18.27;;;8.15;;
73172;SDS011;61388;54.962;73.394;2022-10-15T00:05:40;13.50;;;9.13;;
73172;SDS011;61388;54.962;73.394;2022-10-15T00:08:08;12.45;;;7.78;;
73172;SDS011;61388;54.962;73.394;2022-10-15T00:10:34;18.83;;;8.85;;
73172;SDS011;61388;54.962;73.394;2022-10-15T00:13:00;23.75;;;9.85;;
73172;SDS011;61388;54.962;73.394;2022-10-15T00:15:31;22.02;;;9.30;;
73172;SDS011;61388;54.962;73.394;2022-10-15T00:17:57;16.97;;;9.40;;
73172;SDS011;61388;54.962;73.394;2022-10-15T00:20:23;28.23;;;11.77;;
73172;SDS011;61388;54.962;73.394;2022-10-15T00:22:59;19.42;;;10.73;;
73172;SDS011;61388;54.962;73.394;2022-10-15T00:25:25;20.15;;;11.88;;
73172;SDS011;61388;54.962;73.394;2022-10-15T00:27:56;18.27;;;9.48;;
73172;SDS011;61388;54.962;73.394;2022-10-15T00:30:25;23.73;;;9.70;;
73172;SDS011;61388;54.962;73.394;2022-10-15T00:32:51;24.98;;;14.48;;
73172;SDS011;61388;54.962;73.394;2022-10-15T00:35:17;23.98;;;13.75;;
73172;SDS011;61388;54.962;73.394;2022-10-15T00:37:43;20.45;;;14.23;;
73172;SDS011;61388;54.962;73.394;2022-10-15T00:40:11;17.57;;;12.57;;
73172;SDS011;61388;54.962;73.394;2022-10-15T00:42:39;20.98;;;10.27;;
73172;SDS011;61388;54.962;73.394;2022-10-15T00:45:07;19.10;;;10.75;;
73172;SDS011;61388;54.962;73.394;2022-10-15T00:47:39;16.83;;;11.38;;
73172;SDS011;61388;54.962;73.394;2022-10-15T00:55:21;21.35;;;10.90;;
73172;SDS011;61388;54.962;73.394;2022-10-15T00:57:49;22.30;;;11.93;;
73172;SDS011;61388;54.962;73.394;2022-10-15T01:00:16;21.60;;;12.40;;
73172;SDS011;61388;54.962;73.394;2022-10-15T01:02:43;23.25;;;11.52;;
73172;SDS011;61388;54.962;73.394;2022-10-15T01:05:09;21.30;;;10.33;;
73172;SDS011;61388;54.962;73.394;2022-10-15T01:07:37;23.55;;;10.30;;
73172;SDS011;61388;54.962;73.394;2022-10-15T01:10:04;27.00;;;10.40;;
73172;SDS011;61388;54.962;73.394;2022-10-15T01:17:41;19.23;;;11.10;;
73172;SDS011;61388;54.962;73.394;2022-10-15T01:30:47;22.17;;;14.30;;
73172;SDS011;61388;54.962;73.394;2022-10-15T01:33:20;20.20;;;13.13;;
73172;SDS011;61388;54.962;73.394;2022-10-15T01:35:58;17.48;;;10.98;;
73172;SDS011;61388;54.962;73.394;2022-10-15T01:40:59;19.27;;;10.73;;
73172;SDS011;61388;54.962;73.394;2022-10-15T01:44:12;22.23;;;14.57;;
73172;SDS011;61388;54.962;73.394;2022-10-15T01:46:30;22.80;;;10.50;;
73172;SDS011;61388;54.962;73.394;2022-10-15T01:49:08;26.30;;;10.30;;
73172;SDS011;61388;54.962;73.394;2022-10-15T01:51:42;23.88;;;12.43;;
73172;SDS011;61388;54.962;73.394;2022-10-15T01:54:10;28.17;;;11.32;;
73172;SDS011;61388;54.962;73.394;2022-10-15T01:56:38;23.90;;;12.77;;
73172;SDS011;61388;54.962;73.394;2022-10-15T01:59:09;26.90;;;17.23;;
73172;SDS011;61388;54.962;73.394;2022-10-15T02:01:35;28.33;;;17.00;;
73172;SDS011;61388;54.962;73.394;2022-10-15T02:04:16;30.90;;;13.43;;
73172;SDS011;61388;54.962;73.394;2022-10-15T02:06:44;27.65;;;15.43;;
73172;SDS011;61388;54.962;73.394;2022-10-15T02:14:44;25.17;;;10.50;;
73172;SDS011;61388;54.962;73.394;2022-10-15T02:17:13;31.13;;;12.00;;
73172;SDS011;61388;54.962;73.394;2022-10-15T02:19:45;27.10;;;11.75;;
73172;SDS011;61388;54.962;73.394;2022-10-15T02:25:09;23.20;;;11.57;;
73172;SDS011;61388;54.962;73.394;2022-10-15T02:27:39;25.10;;;13.63;;
73172;SDS011;61388;54.962;73.394;2022-10-15T02:30:06;27.08;;;14.93;;
73172;SDS011;61388;54.962;73.394;2022-10-15T02:32:32;22.90;;;14.38;;
73172;SDS011;61388;54.962;73.394;2022-10-15T02:35:00;24.67;;;13.80;;
73172;SDS011;61388;54.962;73.394;2022-10-15T02:37:26;27.40;;;11.52;;
73172;SDS011;61388;54.962;73.394;2022-10-15T02:39:53;24.70;;;12.48;;
73172;SDS011;61388;54.962;73.394;2022-10-15T02:42:20;27.83;;;12.38;;
73172;SDS011;61388;54.962;73.394;2022-10-15T02:44:47;28.40;;;13.45;;
73172;SDS011;61388;54.962;73.394;2022-10-15T02:47:17;24.87;;;15.97;;
73172;SDS011;61388;54.962;73.394;2022-10-15T02:49:43;25.80;;;14.07;;
73172;SDS011;61388;54.962;73.394;2022-10-15T02:52:10;27.95;;;14.93;;
73172;SDS011;61388;54.962;73.394;2022-10-15T02:54:36;27.70;;;17.45;;
73172;SDS011;61388;54.962;73.394;2022-10-15T02:57:02;31.73;;;16.05;;
73172;SDS011;61388;54.962;73.394;2022-10-15T02:59:28;25.50;;;13.23;;
73172;SDS011;61388;54.962;73.394;2022-10-15T03:01:55;26.58;;;15.98;;
73172;SDS011;61388;54.962;73.394;2022-10-15T03:04:21;27.95;;;17.25;;
73172;SDS011;61388;54.962;73.394;2022-10-15T03:06:57;25.27;;;14.57;;
73172;SDS011;61388;54.962;73.394;2022-10-15T03:09:24;25.17;;;12.68;;
73172;SDS011;61388;54.962;73.394;2022-10-15T03:11:50;28.03;;;14.63;;
73172;SDS011;61388;54.962;73.394;2022-10-15T03:14:22;35.25;;;13.57;;
73172;SDS011;61388;54.962;73.394;2022-10-15T03:16:49;34.60;;;13.77;;
73172;SDS011;61388;54.962;73.394;2022-10-15T03:19:15;33.78;;;13.55;;
73172;SDS011;61388;54.962;73.394;2022-10-15T03:21:47;30.35;;;12.73;;
73172;SDS011;61388;54.962;73.394;2022-10-15T03:24:15;37.27;;;13.93;;
73172;SDS011;61388;54.962;73.394;2022-10-15T03:26:42;24.83;;;13.05;;
73172;SDS011;61388;54.962;73.394;2022-10-15T03:29:08;26.33;;;13.27;;
73172;SDS011;61388;54.962;73.394;2022-10-15T03:31:49;30.90;;;13.73;;
73172;SDS011;61388;54.962;73.394;2022-10-15T03:34:16;32.55;;;16.27;;
73172;SDS011;61388;54.962;73.394;2022-10-15T03:36:42;36.87;;;16.53;;
73172;SDS011;61388;54.962;73.394;2022-10-15T03:39:10;38.22;;;18.48;;
73172;SDS011;61388;54.962;73.394;2022-10-15T03:41:37;37.88;;;18.33;;
73172;SDS011;61388;54.962;73.394;2022-10-15T03:44:05;40.88;;;17.50;;
73172;SDS011;61388;54.962;73.394;2022-10-15T03:46:34;35.85;;;16.30;;
73172;SDS011;61388;54.962;73.394;2022-10-15T03:49:06;48.10;;;16.00;;
73172;SDS011;61388;54.962;73.394;2022-10-15T03:51:34;39.40;;;15.63;;
73172;SDS011;61388;54.962;73.394;2022-10-15T03:54:12;36.53;;;15.20;;
73172;SDS011;61388;54.962;73.394;2022-10-15T03:56:46;30.45;;;13.98;;
73172;SDS011;61388;54.962;73.394;2022-10-15T03:59:31;27.02;;;14.05;;
73172;SDS011;61388;54.962;73.394;2022-10-15T04:02:00;28.03;;;14.80;;
73172;SDS011;61388;54.962;73.394;2022-10-15T04:04:27;36.60;;;14.00;;
73172;SDS011;61388;54.962;73.394;2022-10-15T04:06:54;30.60;;;14.15;;
73172;SDS011;61388;54.962;73.394;2022-10-15T04:09:29;32.08;;;15.32;;
73172;SDS011;61388;54.962;73.394;2022-10-15T04:12:15;32.53;;;14.60;;
73172;SDS011;61388;54.962;73.394;2022-10-15T04:14:42;32.63;;;15.20;;
73172;SDS011;61388;54.962;73.394;2022-10-15T04:17:08;38.97;;;16.08;;
73172;SDS011;61388;54.962;73.394;2022-10-15T04:19:34;35.65;;;17.13;;
73172;SDS011;61388;54.962;73.394;2022-10-15T04:22:06;37.03;;;17.00;;
73172;SDS011;61388;54.962;73.394;2022-10-15T04:24:40;40.60;;;17.17;;
73172;SDS011;61388;54.962;73.394;2022-10-15T04:27:06;37.70;;;17.50;;
73172;SDS011;61388;54.962;73.394;2022-10-15T04:29:32;43.38;;;18.00;;
73172;SDS011;61388;54.962;73.394;2022-10-15T04:32:14;46.67;;;19.00;;
73172;SDS011;61388;54.962;73.394;2022-10-15T04:34:41;47.17;;;18.40;;
73172;SDS011;61388;54.962;73.394;2022-10-15T04:37:08;48.65;;;19.13;;
73172;SDS011;61388;54.962;73.394;2022-10-15T04:39:34;45.00;;;21.07;;
73172;SDS011;61388;54.962;73.394;2022-10-15T04:42:01;40.80;;;21.45;;
73172;SDS011;61388;54.962;73.394;2022-10-15T04:44:30;47.35;;;23.75;;
73172;SDS011;61388;54.962;73.394;2022-10-15T04:46:57;52.17;;;22.10;;
73172;SDS011;61388;54.962;73.394;2022-10-15T04:49:39;44.97;;;22.58;;
73172;SDS011;61388;54.962;73.394;2022-10-15T04:52:17;49.60;;;23.87;;
73172;SDS011;61388;54.962;73.394;2022-10-15T04:54:53;58.17;;;23.02;;
73172;SDS011;61388;54.962;73.394;2022-10-15T04:57:19;71.47;;;24.17;;
73172;SDS011;61388;54.962;73.394;2022-10-15T04:59:46;44.20;;;17.98;;
73172;SDS011;61388;54.962;73.394;2022-10-15T05:02:40;59.08;;;24.77;;
73172;SDS011;61388;54.962;73.394;2022-10-15T05:05:16;53.20;;;18.40;;
73172;SDS011;61388;54.962;73.394;2022-10-15T05:07:51;52.58;;;20.13;;
73172;SDS011;61388;54.962;73.394;2022-10-15T05:10:17;65.97;;;23.08;;
73172;SDS011;61388;54.962;73.394;2022-10-15T05:12:45;54.60;;;23.45;;
73172;SDS011;61388;54.962;73.394;2022-10-15T05:15:11;55.92;;;26.17;;
73172;SDS011;61388;54.962;73.394;2022-10-15T05:17:37;52.07;;;19.77;;
73172;SDS011;61388;54.962;73.394;2022-10-15T05:20:11;56.85;;;20.70;;
73172;SDS011;61388;54.962;73.394;2022-10-15T05:22:43;50.63;;;21.55;;
73172;SDS011;61388;54.962;73.394;2022-10-15T05:25:12;41.67;;;22.13;;
73172;SDS011;61388;54.962;73.394;2022-10-15T05:27:38;57.58;;;25.63;;
73172;SDS011;61388;54.962;73.394;2022-10-15T05:30:05;55.23;;;31.13;;
73172;SDS011;61388;54.962;73.394;2022-10-15T05:32:36;52.47;;;26.10;;
73172;SDS011;61388;54.962;73.394;2022-10-15T05:35:03;52.97;;;24.08;;
73172;SDS011;61388;54.962;73.394;2022-10-15T05:37:51;43.90;;;19.60;;
73172;SDS011;61388;54.962;73.394;2022-10-15T05:40:17;54.42;;;19.80;;
73172;SDS011;61388;54.962;73.394;2022-10-15T05:42:53;51.77;;;22.30;;
73172;SDS011;61388;54.962;73.394;2022-10-15T05:45:19;65.70;;;17.85;;
73172;SDS011;61388;54.962;73.394;2022-10-15T05:47:46;55.35;;;17.80;;
73172;SDS011;61388;54.962;73.394;2022-10-15T05:50:15;48.03;;;22.20;;
73172;SDS011;61388;54.962;73.394;2022-10-15T05:52:44;70.80;;;25.05;;
73172;SDS011;61388;54.962;73.394;2022-10-15T05:55:31;66.07;;;21.73;;
73172;SDS011;61388;54.962;73.394;2022-10-15T05:58:01;54.15;;;19.80;;
73172;SDS011;61388;54.962;73.394;2022-10-15T06:00:27;53.88;;;21.77;;
73172;SDS011;61388;54.962;73.394;2022-10-15T06:02:54;39.70;;;22.10;;
73172;SDS011;61388;54.962;73.394;2022-10-15T06:05:21;55.70;;;22.48;;
73172;SDS011;61388;54.962;73.394;2022-10-15T06:07:47;55.67;;;21.63;;
73172;SDS011;61388;54.962;73.394;2022-10-15T06:10:18;45.15;;;21.00;;
73172;SDS011;61388;54.962;73.394;2022-10-15T06:12:54;50.83;;;34.38;;
73172;SDS011;61388;54.962;73.394;2022-10-15T06:15:20;52.50;;;46.83;;
73172;SDS011;61388;54.962;73.394;2022-10-15T06:17:47;51.75;;;41.72;;
73172;SDS011;61388;54.962;73.394;2022-10-15T06:20:13;58.10;;;46.63;;
73172;SDS011;61388;54.962;73.394;2022-10-15T06:22:39;55.83;;;37.97;;
73172;SDS011;61388;54.962;73.394;2022-10-15T06:25:05;51.45;;;43.75;;
73172;SDS011;61388;54.962;73.394;2022-10-15T06:27:31;64.50;;;40.70;;
73172;SDS011;61388;54.962;73.394;2022-10-15T06:29:58;44.28;;;26.00;;
73172;SDS011;61388;54.962;73.394;2022-10-15T06:32:24;45.83;;;34.80;;
73172;SDS011;61388;54.962;73.394;2022-10-15T06:34:50;45.97;;;19.85;;
73172;SDS011;61388;54.962;73.394;2022-10-15T06:37:16;39.60;;;19.77;;
73172;SDS011;61388;54.962;73.394;2022-10-15T06:39:42;40.30;;;20.10;;
73172;SDS011;61388;54.962;73.394;2022-10-15T06:42:09;38.03;;;20.35;;
73172;SDS011;61388;54.962;73.394;2022-10-15T06:44:38;41.70;;;20.97;;
73172;SDS011;61388;54.962;73.394;2022-10-15T06:47:05;52.95;;;24.02;;
73172;SDS011;61388;54.962;73.394;2022-10-15T06:49:41;60.22;;;23.10;;
73172;SDS011;61388;54.962;73.394;2022-10-15T06:52:07;55.97;;;23.50;;
73172;SDS011;61388;54.962;73.394;2022-10-15T06:54:33;64.45;;;24.27;;
73172;SDS011;61388;54.962;73.394;2022-10-15T06:56:59;46.37;;;20.97;;
73172;SDS011;61388;54.962;73.394;2022-10-15T06:59:25;44.25;;;22.02;;
73172;SDS011;61388;54.962;73.394;2022-10-15T07:01:52;41.83;;;23.17;;
73172;SDS011;61388;54.962;73.394;2022-10-15T07:04:19;42.97;;;21.35;;
73172;SDS011;61388;54.962;73.394;2022-10-15T07:06:47;40.40;;;22.65;;
73172;SDS011;61388;54.962;73.394;2022-10-15T07:09:16;39.43;;;20.87;;
73172;SDS011;61388;54.962;73.394;2022-10-15T07:11:43;51.45;;;23.55;;
73172;SDS011;61388;54.962;73.394;2022-10-15T07:14:09;40.08;;;23.05;;
73172;SDS011;61388;54.962;73.394;2022-10-15T07:16:35;48.88;;;24.27;;
73172;SDS011;61388;54.962;73.394;2022-10-15T07:19:07;50.50;;;24.90;;
73172;SDS011;61388;54.962;73.394;2022-10-15T07:21:39;42.73;;;20.50;;
73172;SDS011;61388;54.962;73.394;2022-10-15T07:24:15;40.53;;;24.83;;
73172;SDS011;61388;54.962;73.394;2022-10-15T07:26:41;76.47;;;51.88;;
73172;SDS011;61388;54.962;73.394;2022-10-15T07:29:08;55.05;;;48.10;;
73172;SDS011;61388;54.962;73.394;2022-10-15T07:31:34;52.65;;;36.63;;
73172;SDS011;61388;54.962;73.394;2022-10-15T07:34:00;40.60;;;26.27;;
73172;SDS011;61388;54.962;73.394;2022-10-15T07:36:29;25.23;;;16.65;;
73172;SDS011;61388;54.962;73.394;2022-10-15T07:38:57;22.08;;;11.23;;
73172;SDS011;61388;54.962;73.394;2022-10-15T07:41:23;16.55;;;8.73;;
73172;SDS011;61388;54.962;73.394;2022-10-15T07:43:50;16.53;;;9.33;;
73172;SDS011;61388;54.962;73.394;2022-10-15T07:46:16;17.88;;;9.25;;
73172;SDS011;61388;54.962;73.394;2022-10-15T07:48:42;11.77;;;8.95;;
73172;SDS011;61388;54.962;73.394;2022-10-15T07:51:08;16.30;;;11.30;;
73172;SDS011;61388;54.962;73.394;2022-10-15T07:53:35;15.05;;;11.32;;
73172;SDS011;61388;54.962;73.394;2022-10-15T07:56:01;26.63;;;16.38;;
73172;SDS011;61388;54.962;73.394;2022-10-15T07:58:31;8.93;;;6.10;;
73172;SDS011;61388;54.962;73.394;2022-10-15T08:00:59;16.38;;;7.45;;
73172;SDS011;61388;54.962;73.394;2022-10-15T08:03:26;15.15;;;6.18;;
73172;SDS011;61388;54.962;73.394;2022-10-15T08:05:52;17.65;;;5.38;;
73172;SDS011;61388;54.962;73.394;2022-10-15T08:08:26;15.80;;;6.55;;
73172;SDS011;61388;54.962;73.394;2022-10-15T08:10:52;16.27;;;7.13;;
73172;SDS011;61388;54.962;73.394;2022-10-15T08:13:18;11.07;;;5.53;;
73172;SDS011;61388;54.962;73.394;2022-10-15T08:15:52;10.13;;;4.07;;
73172;SDS011;61388;54.962;73.394;2022-10-15T08:18:18;12.23;;;5.88;;
73172;SDS011;61388;54.962;73.394;2022-10-15T08:20:44;11.63;;;3.70;;
73172;SDS011;61388;54.962;73.394;2022-10-15T08:23:13;7.00;;;3.92;;
73172;SDS011;61388;54.962;73.394;2022-10-15T08:25:39;9.73;;;4.15;;
73172;SDS011;61388;54.962;73.394;2022-10-15T08:28:07;7.85;;;3.50;;
73172;SDS011;61388;54.962;73.394;2022-10-15T08:30:34;7.07;;;2.90;;
73172;SDS011;61388;54.962;73.394;2022-10-15T08:33:07;10.55;;;3.28;;
73172;SDS011;61388;54.962;73.394;2022-10-15T08:35:33;11.82;;;3.90;;
73172;SDS011;61388;54.962;73.394;2022-10-15T08:38:03;6.32;;;2.95;;
73172;SDS011;61388;54.962;73.394;2022-10-15T08:40:31;11.25;;;2.97;;
73172;SDS011;61388;54.962;73.394;2022-10-15T08:42:59;7.40;;;2.85;;
73172;SDS011;61388;54.962;73.394;2022-10-15T08:45:33;11.73;;;3.15;;
73172;SDS011;61388;54.962;73.394;2022-10-15T08:48:11;15.48;;;3.80;;
73172;SDS011;61388;54.962;73.394;2022-10-15T08:50:41;10.20;;;3.50;;
73172;SDS011;61388;54.962;73.394;2022-10-15T08:53:14;8.47;;;2.67;;
73172;SDS011;61388;54.962;73.394;2022-10-15T08:55:42;17.98;;;7.38;;
73172;SDS011;61388;54.962;73.394;2022-10-15T08:58:18;9.15;;;4.30;;
73172;SDS011;61388;54.962;73.394;2022-10-15T09:00:47;9.23;;;2.55;;
73172;SDS011;61388;54.962;73.394;2022-10-15T09:08:48;10.55;;;3.30;;
73172;SDS011;61388;54.962;73.394;2022-10-15T09:11:26;9.68;;;3.67;;
73172;SDS011;61388;54.962;73.394;2022-10-15T09:13:55;13.35;;;3.70;;
73172;SDS011;61388;54.962;73.394;2022-10-15T09:16:29;9.93;;;3.25;;
73172;SDS011;61388;54.962;73.394;2022-10-15T09:18:57;8.33;;;2.50;;
73172;SDS011;61388;54.962;73.394;2022-10-15T09:21:25;6.88;;;2.35;;
73172;SDS011;61388;54.962;73.394;2022-10-15T09:23:53;9.43;;;2.92;;
73172;SDS011;61388;54.962;73.394;2022-10-15T09:26:26;9.90;;;3.50;;
73172;SDS011;61388;54.962;73.394;2022-10-15T09:29:14;9.13;;;2.95;;
73172;SDS011;61388;54.962;73.394;2022-10-15T09:34:37;6.80;;;3.42;;
73172;SDS011;61388;54.962;73.394;2022-10-15T09:37:05;11.13;;;3.63;;
73172;SDS011;61388;54.962;73.394;2022-10-15T09:42:16;7.15;;;3.40;;
73172;SDS011;61388;54.962;73.394;2022-10-15T09:44:44;12.60;;;3.63;;
73172;SDS011;61388;54.962;73.394;2022-10-15T09:47:15;8.00;;;3.22;;
73172;SDS011;61388;54.962;73.394;2022-10-15T09:49:47;6.68;;;3.20;;
73172;SDS011;61388;54.962;73.394;2022-10-15T09:55:27;11.38;;;3.10;;
73172;SDS011;61388;54.962;73.394;2022-10-15T09:57:55;6.50;;;3.47;;
73172;SDS011;61388;54.962;73.394;2022-10-15T10:00:23;12.07;;;4.55;;
73172;SDS011;61388;54.962;73.394;2022-10-15T10:03:05;10.38;;;3.72;;
73172;SDS011;61388;54.962;73.394;2022-10-15T10:05:32;11.95;;;4.32;;
73172;SDS011;61388;54.962;73.394;2022-10-15T10:08:20;10.65;;;3.67;;
73172;SDS011;61388;54.962;73.394;2022-10-15T10:10:55;13.47;;;3.83;;
73172;SDS011;61388;54.962;73.394;2022-10-15T10:13:22;16.38;;;5.03;;
73172;SDS011;61388;54.962;73.394;2022-10-15T10:15:49;9.82;;;3.60;;
73172;SDS011;61388;54.962;73.394;2022-10-15T10:18:17;12.23;;;4.57;;
73172;SDS011;61388;54.962;73.394;2022-10-15T10:20:56;9.25;;;3.75;;
73172;SDS011;61388;54.962;73.394;2022-10-15T10:23:36;8.43;;;3.50;;
73172;SDS011;61388;54.962;73.394;2022-10-15T10:26:08;8.10;;;2.60;;
73172;SDS011;61388;54.962;73.394;2022-10-15T10:31:13;12.23;;;3.40;;
73172;SDS011;61388;54.962;73.394;2022-10-15T10:36:05;7.53;;;2.97;;
73172;SDS011;61388;54.962;73.394;2022-10-15T10:38:33;14.05;;;3.95;;
73172;SDS011;61388;54.962;73.394;2022-10-15T10:41:06;13.73;;;6.30;;
73172;SDS011;61388;54.962;73.394;2022-10-15T10:43:35;9.82;;;3.53;;
73172;SDS011;61388;54.962;73.394;2022-10-15T10:46:08;8.57;;;3.50;;
73172;SDS011;61388;54.962;73.394;2022-10-15T10:48:46;10.43;;;3.92;;
73172;SDS011;61388;54.962;73.394;2022-10-15T10:51:14;12.38;;;5.28;;
73172;SDS011;61388;54.962;73.394;2022-10-15T10:54:01;11.50;;;4.47;;
73172;SDS011;61388;54.962;73.394;2022-10-15T10:56:36;11.88;;;4.93;;
73172;SDS011;61388;54.962;73.394;2022-10-15T11:01:38;18.25;;;5.82;;
73172;SDS011;61388;54.962;73.394;2022-10-15T11:04:07;17.52;;;5.47;;
73172;SDS011;61388;54.962;73.394;2022-10-15T11:06:47;16.63;;;6.75;;
73172;SDS011;61388;54.962;73.394;2022-10-15T11:20:28;28.75;;;8.07;;
73172;SDS011;61388;54.962;73.394;2022-10-15T11:28:04;23.92;;;8.43;;
73172;SDS011;61388;54.962;73.394;2022-10-15T11:35:39;20.27;;;8.90;;
73172;SDS011;61388;54.962;73.394;2022-10-15T11:41:12;25.85;;;10.18;;
73172;SDS011;61388;54.962;73.394;2022-10-15T11:46:36;33.95;;;13.48;;
73172;SDS011;61388;54.962;73.394;2022-10-15T11:49:17;43.40;;;15.32;;
73172;SDS011;61388;54.962;73.394;2022-10-15T11:56:44;51.67;;;20.00;;
73172;SDS011;61388;54.962;73.394;2022-10-15T11:59:13;40.63;;;17.33;;
73172;SDS011;61388;54.962;73.394;2022-10-15T12:01:44;39.97;;;17.33;;
73172;SDS011;61388;54.962;73.394;2022-10-15T12:06:41;57.53;;;20.33;;
73172;SDS011;61388;54.962;73.394;2022-10-15T12:09:08;85.88;;;34.22;;
73172;SDS011;61388;54.962;73.394;2022-10-15T12:11:39;64.20;;;25.25;;
73172;SDS011;61388;54.962;73.394;2022-10-15T12:14:29;78.87;;;29.90;;
73172;SDS011;61388;54.962;73.394;2022-10-15T12:19:58;103.45;;;45.85;;
73172;SDS011;61388;54.962;73.394;2022-10-15T12:22:32;126.50;;;54.03;;
73172;SDS011;61388;54.962;73.394;2022-10-15T12:24:58;119.82;;;50.08;;
73172;SDS011;61388;54.962;73.394;2022-10-15T12:27:29;122.40;;;48.97;;
73172;SDS011;61388;54.962;73.394;2022-10-15T12:32:25;131.32;;;50.65;;
73172;SDS011;61388;54.962;73.394;2022-10-15T12:34:55;136.60;;;58.15;;
73172;SDS011;61388;54.962;73.394;2022-10-15T12:37:23;138.68;;;60.83;;
73172;SDS011;61388;54.962;73.394;2022-10-15T12:40:00;178.83;;;74.77;;
73172;SDS011;61388;54.962;73.394;2022-10-15T12:42:32;188.35;;;84.00;;
73172;SDS011;61388;54.962;73.394;2022-10-15T12:45:19;172.00;;;80.22;;
73172;SDS011;61388;54.962;73.394;2022-10-15T12:50:16;220.45;;;106.88;;
73172;SDS011;61388;54.962;73.394;2022-10-15T12:52:57;245.93;;;109.83;;
73172;SDS011;61388;54.962;73.394;2022-10-15T12:57:50;250.35;;;130.88;;
73172;SDS011;61388;54.962;73.394;2022-10-15T13:05:45;215.13;;;91.38;;
73172;SDS011;61388;54.962;73.394;2022-10-15T13:08:12;222.23;;;93.22;;
73172;SDS011;61388;54.962;73.394;2022-10-15T13:10:47;221.45;;;98.95;;
73172;SDS011;61388;54.962;73.394;2022-10-15T13:13:15;216.05;;;97.85;;
73172;SDS011;61388;54.962;73.394;2022-10-15T13:15:46;221.37;;;99.17;;
73172;SDS011;61388;54.962;73.394;2022-10-15T13:18:14;208.52;;;92.03;;
73172;SDS011;61388;54.962;73.394;2022-10-15T13:20:44;214.27;;;95.38;;
73172;SDS011;61388;54.962;73.394;2022-10-15T13:23:19;211.32;;;96.18;;
73172;SDS011;61388;54.962;73.394;2022-10-15T13:25:50;223.30;;;100.03;;
73172;SDS011;61388;54.962;73.394;2022-10-15T13:28:29;212.73;;;94.53;;
73172;SDS011;61388;54.962;73.394;2022-10-15T13:30:56;203.82;;;91.20;;
73172;SDS011;61388;54.962;73.394;2022-10-15T13:33:27;212.35;;;94.43;;
73172;SDS011;61388;54.962;73.394;2022-10-15T13:36:05;202.68;;;85.45;;
73172;SDS011;61388;54.962;73.394;2022-10-15T13:38:31;205.73;;;91.65;;
73172;SDS011;61388;54.962;73.394;2022-10-15T13:40:58;210.50;;;95.33;;
73172;SDS011;61388;54.962;73.394;2022-10-15T13:43:25;208.63;;;87.68;;
73172;SDS011;61388;54.962;73.394;2022-10-15T13:45:58;174.93;;;78.80;;
73172;SDS011;61388;54.962;73.394;2022-10-15T13:48:28;216.00;;;90.32;;
73172;SDS011;61388;54.962;73.394;2022-10-15T13:51:00;168.60;;;73.82;;
73172;SDS011;61388;54.962;73.394;2022-10-15T13:53:34;168.53;;;74.40;;
73172;SDS011;61388;54.962;73.394;2022-10-15T13:56:01;178.15;;;76.60;;
73172;SDS011;61388;54.962;73.394;2022-10-15T13:58:32;175.57;;;77.25;;
73172;SDS011;61388;54.962;73.394;2022-10-15T14:03:26;167.20;;;79.18;;
73172;SDS011;61388;54.962;73.394;2022-10-15T14:05:52;172.17;;;81.53;;
73172;SDS011;61388;54.962;73.394;2022-10-15T14:08:20;173.25;;;83.88;;
73172;SDS011;61388;54.962;73.394;2022-10-15T14:10:57;176.82;;;81.93;;
73172;SDS011;61388;54.962;73.394;2022-10-15T14:13:31;174.98;;;81.68;;
73172;SDS011;61388;54.962;73.394;2022-10-15T14:16:14;166.70;;;75.72;;
73172;SDS011;61388;54.962;73.394;2022-10-15T14:18:44;178.93;;;78.27;;
73172;SDS011;61388;54.962;73.394;2022-10-15T14:21:22;173.02;;;75.65;;
73172;SDS011;61388;54.962;73.394;2022-10-15T14:24:01;172.95;;;76.20;;
73172;SDS011;61388;54.962;73.394;2022-10-15T14:26:33;159.95;;;75.80;;
73172;SDS011;61388;54.962;73.394;2022-10-15T14:28:59;162.23;;;77.80;;
73172;SDS011;61388;54.962;73.394;2022-10-15T14:33:57;141.90;;;68.57;;
73172;SDS011;61388;54.962;73.394;2022-10-15T14:36:39;124.53;;;61.58;;
73172;SDS011;61388;54.962;73.394;2022-10-15T14:39:48;123.20;;;55.65;;
73172;SDS011;61388;54.962;73.394;2022-10-15T14:42:05;116.60;;;55.38;;
73172;SDS011;61388;54.962;73.394;2022-10-15T14:44:45;89.63;;;44.40;;
73172;SDS011;61388;54.962;73.394;2022-10-15T14:47:16;88.93;;;44.30;;
73172;SDS011;61388;54.962;73.394;2022-10-15T14:49:43;104.47;;;46.10;;
73172;SDS011;61388;54.962;73.394;2022-10-15T14:52:16;94.47;;;44.22;;
73172;SDS011;61388;54.962;73.394;2022-10-15T14:57:34;89.17;;;41.47;;
73172;SDS011;61388;54.962;73.394;2022-10-15T15:00:04;95.72;;;44.40;;
73172;SDS011;61388;54.962;73.394;2022-10-15T15:02:30;89.95;;;42.72;;
73172;SDS011;61388;54.962;73.394;2022-10-15T15:07:38;94.05;;;43.15;;
73172;SDS011;61388;54.962;73.394;2022-10-15T15:10:04;91.20;;;44.30;;
73172;SDS011;61388;54.962;73.394;2022-10-15T15:12:31;98.38;;;43.38;;
73172;SDS011;61388;54.962;73.394;2022-10-15T15:15:03;102.45;;;45.20;;
73172;SDS011;61388;54.962;73.394;2022-10-15T15:17:29;99.25;;;44.97;;
73172;SDS011;61388;54.962;73.394;2022-10-15T15:19:55;98.47;;;47.58;;
73172;SDS011;61388;54.962;73.394;2022-10-15T15:22:31;99.77;;;47.67;;
73172;SDS011;61388;54.962;73.394;2022-10-15T15:24:58;101.63;;;49.38;;
73172;SDS011;61388;54.962;73.394;2022-10-15T15:27:26;102.40;;;48.78;;
73172;SDS011;61388;54.962;73.394;2022-10-15T15:30:05;104.15;;;48.10;;
73172;SDS011;61388;54.962;73.394;2022-10-15T15:32:32;104.25;;;45.67;;
73172;SDS011;61388;54.962;73.394;2022-10-15T15:34:58;99.53;;;49.37;;
73172;SDS011;61388;54.962;73.394;2022-10-15T15:37:29;103.80;;;47.17;;
73172;SDS011;61388;54.962;73.394;2022-10-15T15:39:57;96.50;;;46.58;;
73172;SDS011;61388;54.962;73.394;2022-10-15T15:42:23;87.85;;;44.65;;
73172;SDS011;61388;54.962;73.394;2022-10-15T15:44:59;93.50;;;44.33;;
73172;SDS011;61388;54.962;73.394;2022-10-15T15:47:25;106.23;;;46.17;;
73172;SDS011;61388;54.962;73.394;2022-10-15T15:49:51;92.50;;;44.70;;
73172;SDS011;61388;54.962;73.394;2022-10-15T15:52:17;94.88;;;44.22;;
73172;SDS011;61388;54.962;73.394;2022-10-15T15:54:43;94.93;;;46.03;;
73172;SDS011;61388;54.962;73.394;2022-10-15T15:57:16;89.72;;;43.92;;
73172;SDS011;61388;54.962;73.394;2022-10-15T15:59:42;85.27;;;43.63;;
73172;SDS011;61388;54.962;73.394;2022-10-15T16:02:08;94.78;;;42.97;;
73172;SDS011;61388;54.962;73.394;2022-10-15T16:04:45;91.00;;;45.05;;
73172;SDS011;61388;54.962;73.394;2022-10-15T16:07:21;92.45;;;45.58;;
73172;SDS011;61388;54.962;73.394;2022-10-15T16:09:47;106.25;;;49.63;;
73172;SDS011;61388;54.962;73.394;2022-10-15T16:12:18;106.80;;;47.90;;
73172;SDS011;61388;54.962;73.394;2022-10-15T16:14:44;98.63;;;47.40;;
73172;SDS011;61388;54.962;73.394;2022-10-15T16:17:15;113.75;;;51.65;;
73172;SDS011;61388;54.962;73.394;2022-10-15T16:19:41;106.88;;;47.75;;
73172;SDS011;61388;54.962;73.394;2022-10-15T16:22:07;104.20;;;47.87;;